Time;durP1;ratioP1;P1;durP2;ratioP2;P2;SDS_P1;SDS_P2;PMS_P1;PMS_P2;Temp;Humidity;BMP_temperature;BMP_pressure;BME280_temperature;BME280_humidity;BME280_pressure;Samples;Min_cycle;Max_cycle;Signal;HPM_P1;HPM_P2
2022/08/13 00:02:10;;;;;;;5.47;2.40;;;;;;;25.39;35.96;101571.59;5034744;28;20084;-71
2022/08/13 00:04:36;;;;;;;5.15;3.22;;;;;;;25.38;35.72;101575.28;5035753;28;20021;-71
2022/08/13 00:07:10;;;;;;;5.32;2.33;;;;;;;25.37;36.02;101570.94;5035200;28;20030;-70
2022/08/13 00:09:40;;;;;;;4.30;2.53;;;;;;;25.36;35.95;101575.44;5034681;28;20115;-70
2022/08/13 00:14:59;;;;;;;5.97;2.50;;;;;;;25.34;35.62;101580.06;5035326;28;20036;-70
2022/08/13 00:17:24;;;;;;;5.47;2.40;;;;;;;25.32;35.93;101569.56;5034783;28;20021;-70
2022/08/13 00:19:51;;;;;;;4.53;2.42;;;;;;;25.31;35.86;101575.06;5035394;28;20032;-70
2022/08/13 00:22:19;;;;;;;5.50;2.78;;;;;;;25.30;36.14;101573.38;5034197;28;20055;-70
2022/08/13 00:24:45;;;;;;;4.55;2.60;;;;;;;25.29;36.22;101571.72;5035295;28;20033;-70
2022/08/13 00:27:10;;;;;;;3.88;2.38;;;;;;;25.28;36.12;101570.06;5034115;28;20032;-70
2022/08/13 00:29:37;;;;;;;4.07;2.20;;;;;;;25.26;35.89;101564.84;5034454;28;20389;-70
2022/08/13 00:32:03;;;;;;;5.47;2.83;;;;;;;25.25;36.10;101571.16;5034726;28;20049;-70
2022/08/13 00:34:28;;;;;;;4.28;2.60;;;;;;;25.25;36.35;101573.81;5035182;28;20069;-70
2022/08/13 00:36:53;;;;;;;4.10;2.33;;;;;;;25.24;35.91;101579.31;5034129;28;20065;-70
2022/08/13 00:39:19;;;;;;;4.73;2.80;;;;;;;25.23;36.22;101573.16;5034765;28;20025;-70
2022/08/13 00:41:46;;;;;;;3.88;2.35;;;;;;;25.21;36.35;101574.28;5034859;28;20641;-70
2022/08/13 00:44:18;;;;;;;4.20;2.47;;;;;;;25.19;35.99;101574.44;5033965;28;20030;-70
2022/08/13 00:46:44;;;;;;;4.28;2.50;;;;;;;25.19;36.16;101571.75;5034765;28;20080;-70
2022/08/13 00:49:12;;;;;;;5.78;2.58;;;;;;;25.17;36.30;101571.91;5034662;28;20112;-70
2022/08/13 00:51:39;;;;;;;3.75;2.60;;;;;;;25.17;36.18;101571.91;5033990;28;20098;-70
2022/08/13 00:54:07;;;;;;;4.43;2.60;;;;;;;25.17;36.24;101571.09;5034505;28;20029;-71
2022/08/13 00:56:35;;;;;;;6.65;2.78;;;;;;;25.17;36.44;101571.09;5034705;28;20019;-70
2022/08/13 00:59:11;;;;;;;4.60;2.47;;;;;;;25.16;36.61;101575.56;5033583;28;20028;-70
2022/08/13 01:01:41;;;;;;;4.32;2.88;;;;;;;25.14;36.68;101572.22;5034444;28;20025;-70
2022/08/13 01:04:07;;;;;;;5.07;2.50;;;;;;;25.14;36.49;101574.91;5034085;28;20068;-70
2022/08/13 01:06:33;;;;;;;5.55;2.60;;;;;;;25.14;36.78;101577.56;5033821;28;20030;-70
2022/08/13 01:08:59;;;;;;;4.65;2.60;;;;;;;25.12;36.50;101579.56;5034387;28;20021;-71
2022/08/13 01:11:27;;;;;;;5.35;2.80;;;;;;;25.12;36.39;101571.56;5033544;28;20378;-70
2022/08/13 01:13:52;;;;;;;4.72;2.67;;;;;;;25.12;36.29;101576.06;5034241;28;20025;-70
2022/08/13 01:16:18;;;;;;;4.93;2.50;;;;;;;25.10;36.80;101578.88;5033972;28;20025;-70
2022/08/13 01:18:46;;;;;;;5.55;2.92;;;;;;;25.10;36.97;101570.88;5033911;28;20084;-70
2022/08/13 01:21:15;;;;;;;4.68;2.60;;;;;;;25.10;37.18;101578.03;5034031;28;20026;-70
2022/08/13 01:23:46;;;;;;;4.63;2.30;;;;;;;25.08;37.23;101578.16;5034210;28;20029;-70
2022/08/13 01:26:15;;;;;;;4.82;2.42;;;;;;;25.09;37.60;101576.38;5033025;28;20036;-70
2022/08/13 01:28:41;;;;;;;4.10;2.50;;;;;;;25.08;37.62;101578.16;5034108;28;20056;-70
2022/08/13 01:31:06;;;;;;;5.22;2.63;;;;;;;25.08;37.34;101577.34;5033333;28;20065;-70
2022/08/13 01:33:35;;;;;;;4.72;2.70;;;;;;;25.07;37.38;101581.00;5033270;28;20108;-70
2022/08/13 01:36:03;;;;;;;5.07;2.75;;;;;;;25.05;37.23;101585.66;5033538;28;20021;-70
2022/08/13 01:38:28;;;;;;;4.65;2.50;;;;;;;25.05;37.46;101585.66;5033888;28;20033;-71
2022/08/13 01:40:54;;;;;;;5.63;2.70;;;;;;;25.03;37.32;101582.31;5032809;28;20154;-70
2022/08/13 01:43:20;;;;;;;6.07;2.60;;;;;;;25.03;37.49;101577.78;5033380;28;20057;-70
2022/08/13 01:45:48;;;;;;;4.28;2.45;;;;;;;25.02;37.31;101578.78;5033559;28;20026;-70
2022/08/13 01:50:57;;;;;;;4.50;2.75;;;;;;;25.01;37.58;101576.25;5033595;28;20539;-71
2022/08/13 01:53:22;;;;;;;5.32;2.58;;;;;;;25.01;37.63;101581.59;5033354;28;20029;-70
2022/08/13 01:55:52;;;;;;;4.03;2.40;;;;;;;24.99;37.69;101577.28;5032636;28;20067;-70
2022/08/13 01:58:31;;;;;;;5.10;2.70;;;;;;;24.98;37.39;101572.91;5032929;28;20037;-70
2022/08/13 02:01:00;;;;;;;4.82;2.50;;;;;;;24.98;37.28;101574.75;5032741;28;20094;-71
2022/08/13 02:03:26;;;;;;;5.65;2.70;;;;;;;24.96;37.39;101564.25;5033316;28;20025;-71
2022/08/13 02:05:52;;;;;;;6.18;3.25;;;;;;;24.95;37.16;101567.91;5033263;28;20155;-70
2022/08/13 02:08:22;;;;;;;4.63;2.80;;;;;;;24.95;37.15;101567.06;5032195;28;20033;-70
2022/08/13 02:10:51;;;;;;;4.30;2.72;;;;;;;24.94;37.17;101571.56;5033361;28;20891;-70
2022/08/13 02:13:26;;;;;;;4.70;2.75;;;;;;;24.95;37.21;101567.06;5033034;28;20453;-71
2022/08/13 02:15:52;;;;;;;4.53;2.67;;;;;;;24.93;37.31;101572.56;5032551;28;20155;-70
2022/08/13 02:18:20;;;;;;;5.30;2.60;;;;;;;24.92;37.63;101567.38;5032843;28;20096;-71
2022/08/13 02:21:01;;;;;;;4.38;2.70;;;;;;;24.91;37.33;101568.34;5032892;28;20031;-71
2022/08/13 02:23:32;;;;;;;4.65;2.78;;;;;;;24.91;37.48;101571.00;5032569;28;20017;-71
2022/08/13 02:25:59;;;;;;;5.00;2.60;;;;;;;24.90;37.69;101574.69;5033142;28;20030;-71
2022/08/13 02:28:25;;;;;;;4.05;2.50;;;;;;;24.89;38.26;101571.16;5033081;28;20025;-71
2022/08/13 02:30:54;;;;;;;4.70;2.92;;;;;;;24.89;37.73;101565.84;5032283;28;20037;-72
2022/08/13 02:33:22;;;;;;;4.68;2.80;;;;;;;24.88;37.71;101571.31;5032622;28;20079;-71
2022/08/13 02:35:48;;;;;;;4.13;2.67;;;;;;;24.88;38.01;101571.31;5031920;28;20036;-70
2022/08/13 02:38:15;;;;;;;5.43;2.80;;;;;;;24.88;37.55;101566.84;5032742;28;20033;-70
2022/08/13 02:43:26;;;;;;;4.97;3.13;;;;;;;24.86;37.92;101560.81;5032015;28;20080;-71
2022/08/13 02:45:53;;;;;;;4.57;2.80;;;;;;;24.86;37.43;101568.81;5032628;28;20428;-71
2022/08/13 02:48:24;;;;;;;4.30;2.40;;;;;;;24.85;37.82;101567.16;5032328;28;20040;-71
2022/08/13 02:50:55;;;;;;;4.65;2.60;;;;;;;24.84;37.86;101569.97;5031710;28;20029;-71
2022/08/13 02:53:21;;;;;;;4.32;2.60;;;;;;;24.82;37.86;101567.44;5032571;28;20028;-70
2022/08/13 02:55:47;;;;;;;3.90;2.40;;;;;;;24.83;37.42;101568.28;5032749;28;20108;-70
2022/08/13 02:58:13;;;;;;;4.00;2.40;;;;;;;24.81;37.47;101566.59;5031501;28;20477;-71
2022/08/13 03:00:41;;;;;;;5.05;2.70;;;;;;;24.80;37.49;101572.94;5032498;28;20550;-71
2022/08/13 03:03:07;;;;;;;4.68;2.72;;;;;;;24.79;37.42;101563.25;5032548;28;20030;-71
2022/08/13 03:05:33;;;;;;;5.22;2.88;;;;;;;24.79;37.60;101565.91;5031908;28;20053;-70
2022/08/13 03:07:59;;;;;;;5.18;3.10;;;;;;;24.80;37.80;101572.06;5032016;28;20488;-70
2022/08/13 03:10:27;;;;;;;4.47;2.38;;;;;;;24.78;37.79;101569.59;5032570;28;20465;-70
2022/08/13 03:12:59;;;;;;;4.70;2.65;;;;;;;24.78;37.41;101566.91;5031705;28;20099;-70
2022/08/13 03:15:26;;;;;;;5.18;2.88;;;;;;;24.77;37.80;101564.41;5032723;28;20060;-70
2022/08/13 03:17:52;;;;;;;4.93;2.50;;;;;;;24.76;37.90;101565.38;5031988;28;20030;-70
2022/08/13 03:20:17;;;;;;;4.25;2.50;;;;;;;24.75;37.70;101569.88;5032064;28;20032;-70
2022/08/13 03:22:46;;;;;;;7.13;3.03;;;;;;;24.74;38.00;101578.84;5032541;28;20420;-70
2022/08/13 03:25:11;;;;;;;6.53;2.60;;;;;;;24.75;37.93;101575.22;5031397;28;20029;-70
2022/08/13 03:27:39;;;;;;;6.90;3.13;;;;;;;24.74;37.51;101572.69;5032319;28;20033;-70
2022/08/13 03:30:06;;;;;;;5.10;2.58;;;;;;;24.73;37.87;101576.34;5032176;28;20030;-70
2022/08/13 03:32:36;;;;;;;4.85;2.70;;;;;;;24.71;37.85;101571.16;5031669;28;20029;-71
2022/08/13 03:35:02;;;;;;;6.13;2.85;;;;;;;24.71;37.91;101573.00;5031843;28;20018;-70
2022/08/13 03:37:27;;;;;;;6.60;2.75;;;;;;;24.70;37.95;101576.66;5032288;28;20022;-70
2022/08/13 03:39:52;;;;;;;5.22;2.72;;;;;;;24.69;37.97;101573.16;5031759;28;20026;-70
2022/08/13 03:42:18;;;;;;;4.30;2.47;;;;;;;24.69;37.79;101580.28;5031651;28;20045;-70
2022/08/13 03:44:43;;;;;;;4.57;3.00;;;;;;;24.68;37.97;101578.63;5032410;28;20321;-70
2022/08/13 03:47:13;;;;;;;5.70;2.80;;;;;;;24.66;37.66;101572.59;5031199;28;20778;-70
2022/08/13 03:49:39;;;;;;;4.63;2.80;;;;;;;24.65;38.17;101577.09;5032274;28;20290;-71
2022/08/13 03:52:04;;;;;;;4.50;2.63;;;;;;;24.65;37.78;101574.44;5031843;28;20032;-70
2022/08/13 03:54:29;;;;;;;4.18;2.50;;;;;;;24.63;37.86;101568.41;5031395;28;20122;-71
2022/08/13 03:56:55;;;;;;;5.97;2.77;;;;;;;24.63;37.96;101571.09;5031949;28;20030;-71
2022/08/13 03:59:20;;;;;;;4.67;2.70;;;;;;;24.61;37.62;101568.56;5031733;28;20292;-70
2022/08/13 04:01:47;;;;;;;5.28;2.47;;;;;;;24.61;38.11;101568.56;5031595;28;20294;-71
2022/08/13 04:04:12;;;;;;;4.43;2.50;;;;;;;24.60;37.88;101568.72;5035276;28;20374;-70
2022/08/13 04:06:38;;;;;;;5.50;2.90;;;;;;;24.58;38.00;101568.88;5035558;28;20036;-70
2022/08/13 04:09:04;;;;;;;4.22;2.70;;;;;;;24.59;38.01;101570.56;5034397;28;20036;-70
2022/08/13 04:11:32;;;;;;;4.47;2.63;;;;;;;24.57;38.11;101561.84;5035454;28;20104;-70
2022/08/13 04:13:57;;;;;;;5.20;2.53;;;;;;;24.56;37.75;101565.53;5035623;28;20353;-70
2022/08/13 04:16:24;;;;;;;4.90;2.65;;;;;;;24.56;37.86;101562.84;5034694;28;20545;-71
2022/08/13 04:18:50;;;;;;;5.00;2.75;;;;;;;24.56;37.64;101561.97;5035243;28;20435;-71
2022/08/13 04:21:19;;;;;;;4.45;2.80;;;;;;;24.54;37.70;101570.09;5034297;28;20144;-71
2022/08/13 04:23:46;;;;;;;3.95;2.45;;;;;;;24.54;37.90;101574.59;5035116;28;20025;-70
2022/08/13 04:26:14;;;;;;;3.95;2.40;;;;;;;24.53;37.57;101575.59;5034632;28;20454;-70
2022/08/13 04:28:41;;;;;;;4.25;2.35;;;;;;;24.52;37.86;101573.94;5034514;28;20028;-70
2022/08/13 04:31:06;;;;;;;4.97;2.92;;;;;;;24.51;37.37;101583.72;5035015;28;20045;-71
2022/08/13 04:33:31;;;;;;;4.05;2.67;;;;;;;24.51;37.87;101578.41;5035170;28;20026;-70
2022/08/13 04:35:57;;;;;;;4.63;2.58;;;;;;;24.52;37.84;101588.09;5034217;28;20021;-70
2022/08/13 04:38:22;;;;;;;5.10;2.70;;;;;;;24.51;37.44;101581.06;5034633;28;20036;-70
2022/08/13 04:40:48;;;;;;;4.57;2.70;;;;;;;24.51;37.85;101577.56;5034732;28;20111;-70
2022/08/13 04:43:14;;;;;;;6.00;2.60;;;;;;;24.50;37.41;101575.88;5034138;28;20033;-70
2022/08/13 04:45:40;;;;;;;4.60;2.80;;;;;;;24.49;37.54;101571.56;5035024;28;20025;-70
2022/08/13 04:48:09;;;;;;;5.22;2.85;;;;;;;24.51;37.78;101580.25;5034300;28;20393;-70
2022/08/13 04:50:36;;;;;;;4.47;2.53;;;;;;;24.51;37.93;101577.56;5034020;28;20377;-71
2022/08/13 04:53:04;;;;;;;4.20;2.72;;;;;;;24.50;37.54;101576.75;5034378;28;20025;-71
2022/08/13 04:55:30;;;;;;;5.20;2.65;;;;;;;24.50;37.56;101576.75;5034538;28;20377;-71
2022/08/13 04:57:56;;;;;;;4.53;2.65;;;;;;;24.49;37.54;101577.72;5034027;28;20029;-70
2022/08/13 05:00:24;;;;;;;4.88;2.78;;;;;;;24.51;37.57;101577.56;5034527;28;20030;-70
2022/08/13 05:02:52;;;;;;;5.78;2.58;;;;;;;24.51;38.03;101585.56;5034614;28;20362;-70
2022/08/13 05:05:18;;;;;;;4.80;2.30;;;;;;;24.51;38.03;101583.72;5033412;28;20036;-71
2022/08/13 05:07:47;;;;;;;4.50;2.60;;;;;;;24.51;37.61;101582.91;5034233;28;20079;-70
2022/08/13 05:10:15;;;;;;;3.70;2.35;;;;;;;24.51;37.61;101583.72;5034159;28;20381;-70
2022/08/13 05:12:41;;;;;;;6.05;2.95;;;;;;;24.52;37.75;101587.25;5033195;28;20381;-70
2022/08/13 05:15:06;;;;;;;4.43;2.40;;;;;;;24.53;38.05;101586.25;5033813;28;20018;-70
2022/08/13 05:17:32;;;;;;;4.43;2.70;;;;;;;24.53;37.91;101583.56;5033637;28;20034;-70
2022/08/13 05:19:58;;;;;;;4.72;2.53;;;;;;;24.55;37.82;101589.63;5034582;28;20373;-70
2022/08/13 05:22:24;;;;;;;4.22;2.58;;;;;;;24.54;37.79;101588.75;5034117;28;20109;-70
2022/08/13 05:24:50;;;;;;;4.65;2.47;;;;;;;24.55;37.48;101595.78;5033515;28;20109;-70
2022/08/13 05:27:16;;;;;;;5.30;2.63;;;;;;;24.55;37.50;101589.63;5033614;28;20355;-70
2022/08/13 05:29:43;;;;;;;5.78;3.00;;;;;;;24.56;37.69;101597.50;5034083;28;20026;-70
2022/08/13 05:32:10;;;;;;;4.03;2.47;;;;;;;24.57;37.62;101593.00;5033147;28;20079;-70
2022/08/13 05:34:37;;;;;;;5.93;2.38;;;;;;;24.57;37.39;101591.16;5033944;28;20100;-70
2022/08/13 05:37:03;;;;;;;4.93;2.72;;;;;;;24.59;37.70;101586.53;5033357;28;20029;-71
2022/08/13 05:39:29;;;;;;;5.05;2.80;;;;;;;24.61;37.74;101594.38;5033142;28;20022;-70
2022/08/13 05:41:55;;;;;;;4.55;2.58;;;;;;;24.62;37.18;101593.38;5033457;28;20044;-70
2022/08/13 05:44:22;;;;;;;3.55;2.15;;;;;;;24.62;37.55;101588.91;5033530;28;20515;-70
2022/08/13 05:46:48;;;;;;;4.10;2.40;;;;;;;24.64;37.41;101588.72;5032898;28;20029;-71
2022/08/13 05:49:13;;;;;;;6.00;2.80;;;;;;;24.64;37.79;101588.72;5033239;28;20469;-70
2022/08/13 05:51:39;;;;;;;5.60;3.17;;;;;;;24.59;36.81;101593.69;5033748;28;20052;-71
2022/08/13 05:54:07;;;;;;;7.88;3.67;;;;;;;24.30;36.95;101591.97;5032697;28;20029;-72
2022/08/13 05:56:41;;;;;;;5.07;3.10;;;;;;;23.99;37.40;101588.75;5033509;28;20025;-73
2022/08/13 06:03:25;;;;;;;6.20;3.50;;;;;;;23.69;38.19;101595.97;5033266;28;20401;-67
2022/08/13 06:04:41;;;;;;;7.38;3.80;;;;;;;23.17;39.33;101591.78;5033612;28;20189;-68
2022/08/13 06:07:13;;;;;;;10.13;3.85;;;;;;;23.00;39.35;101587.16;5032174;28;20124;-68
2022/08/13 06:09:38;;;;;;;6.45;3.80;;;;;;;22.87;39.67;101594.56;5033406;28;20044;-68
2022/08/13 06:12:04;;;;;;;8.65;4.00;;;;;;;22.74;39.47;101593.00;5032963;28;20033;-68
2022/08/13 06:14:34;;;;;;;6.05;3.80;;;;;;;22.67;39.94;101598.97;5032381;28;20018;-68
2022/08/13 06:17:02;;;;;;;7.20;4.13;;;;;;;22.57;40.18;101594.50;5033058;28;20037;-67
2022/08/13 06:19:30;;;;;;;7.75;4.07;;;;;;;22.50;40.81;101592.53;5033310;28;20052;-67
2022/08/13 06:22:01;;;;;;;6.80;3.78;;;;;;;22.46;41.13;101589.28;5032304;28;20083;-68
2022/08/13 06:24:35;;;;;;;6.18;3.80;;;;;;;22.42;40.71;101586.06;5032450;28;20029;-68
2022/08/13 06:27:04;;;;;;;6.55;3.80;;;;;;;22.38;40.74;101589.97;5032460;28;20366;-67
2022/08/13 06:29:33;;;;;;;6.93;3.83;;;;;;;22.36;40.97;101593.75;5032283;28;20040;-69
2022/08/13 06:31:59;;;;;;;10.82;3.88;;;;;;;22.34;41.35;101593.88;5032701;28;20373;-68
2022/08/13 06:34:25;;;;;;;7.97;3.63;;;;;;;22.33;41.66;101594.84;5032832;28;20420;-70
2022/08/13 06:36:51;;;;;;;6.82;3.92;;;;;;;22.34;41.59;101595.69;5032092;28;20021;-68
2022/08/13 06:39:17;;;;;;;6.07;3.60;;;;;;;22.35;41.54;101595.56;5032451;28;20186;-68
2022/08/13 06:41:45;;;;;;;7.00;3.40;;;;;;;22.38;41.59;101600.59;5032509;28;20048;-68
2022/08/13 06:44:11;;;;;;;6.32;3.65;;;;;;;22.42;41.21;101598.50;5031833;28;20036;-67
2022/08/13 06:46:38;;;;;;;7.35;3.75;;;;;;;22.45;40.60;101595.59;5032775;28;20389;-67
2022/08/13 06:49:03;;;;;;;5.93;3.40;;;;;;;22.51;40.76;101596.84;5031718;28;20024;-67
2022/08/13 06:51:29;;;;;;;6.28;3.60;;;;;;;22.56;40.37;101595.47;5032654;28;20021;-67
2022/08/13 06:53:55;;;;;;;5.75;3.50;;;;;;;22.60;40.29;101596.88;5032537;28;20029;-72
2022/08/13 06:56:23;;;;;;;7.38;3.55;;;;;;;22.66;40.25;101608.78;5031921;28;20025;-71
2022/08/13 06:58:58;;;;;;;8.48;3.20;;;;;;;22.72;39.64;101604.75;5032976;28;20040;-69
2022/08/13 07:01:26;;;;;;;7.25;3.20;;;;;;;22.76;39.03;101598.16;5032744;28;20021;-70
2022/08/13 07:03:53;;;;;;;8.73;3.55;;;;;;;22.83;39.40;101601.97;5031829;28;20061;-72
2022/08/13 07:06:25;;;;;;;5.78;2.75;;;;;;;22.90;39.63;101603.09;5032174;28;20361;-71
2022/08/13 07:08:54;;;;;;;4.68;3.00;;;;;;;22.98;39.39;101605.06;5032828;28;20021;-71
2022/08/13 07:11:22;;;;;;;5.45;2.90;;;;;;;23.08;39.53;101605.09;5031558;28;20178;-70
2022/08/13 07:13:49;;;;;;;4.57;2.78;;;;;;;23.20;38.72;101606.66;5032743;28;20025;-74
2022/08/13 07:16:16;;;;;;;7.22;3.22;;;;;;;23.32;38.49;101607.31;5032203;28;20034;-69
2022/08/13 07:18:46;;;;;;;5.78;3.20;;;;;;;23.41;38.24;101603.81;5031924;28;20024;-67
2022/08/13 07:21:14;;;;;;;5.93;2.90;;;;;;;23.47;38.53;101603.25;5031935;28;20083;-74
2022/08/13 07:23:41;;;;;;;6.05;2.80;;;;;;;23.53;38.41;101609.84;5032557;28;20064;-71
2022/08/13 07:26:07;;;;;;;6.80;2.70;;;;;;;23.60;38.61;101602.13;5031419;28;20116;-70
2022/08/13 07:28:34;;;;;;;5.72;2.97;;;;;;;23.64;38.20;101600.84;5032388;28;20036;-70
2022/08/13 07:31:04;;;;;;;4.65;2.60;;;;;;;23.67;38.33;101598.75;5032084;28;20029;-71
2022/08/13 07:33:29;;;;;;;4.57;2.65;;;;;;;23.75;38.57;101607.84;5032076;28;20029;-71
2022/08/13 07:35:54;;;;;;;4.35;2.55;;;;;;;23.80;38.20;101605.56;5032947;28;20082;-73
2022/08/13 07:38:20;;;;;;;6.68;2.63;;;;;;;23.91;38.54;101613.44;5035156;28;20069;-71
2022/08/13 07:40:50;;;;;;;6.82;3.40;;;;;;;24.02;38.09;101610.59;5036025;28;20075;-72
2022/08/13 07:43:22;;;;;;;6.50;2.88;;;;;;;24.14;37.72;101611.25;5035887;28;20082;-71
2022/08/13 07:46:02;;;;;;;4.65;2.50;;;;;;;24.24;37.48;101606.75;5035214;28;20136;-70
2022/08/13 07:48:30;;;;;;;4.55;2.30;;;;;;;24.33;37.02;101606.84;5035986;28;20041;-71
2022/08/13 07:50:57;;;;;;;6.18;2.88;;;;;;;24.37;36.81;101614.38;5036037;28;20030;-71
2022/08/13 07:53:23;;;;;;;7.32;2.60;;;;;;;24.44;36.81;101611.97;5034984;28;20033;-72
2022/08/13 07:55:50;;;;;;;6.07;2.47;;;;;;;24.52;37.08;101612.06;5035814;28;20412;-72
2022/08/13 07:58:16;;;;;;;3.75;2.13;;;;;;;24.62;36.44;101607.56;5035514;28;20026;-71
2022/08/13 08:00:44;;;;;;;5.93;2.47;;;;;;;24.71;36.62;101612.97;5034803;28;20032;-72
2022/08/13 08:03:12;;;;;;;4.38;2.40;;;;;;;24.80;36.30;101612.06;5035440;28;20056;-70
2022/08/13 08:05:39;;;;;;;4.80;2.53;;;;;;;24.84;35.93;101604.63;5035819;28;20097;-73
2022/08/13 08:08:04;;;;;;;4.65;2.30;;;;;;;24.90;36.41;101612.84;5034579;28;20029;-73
2022/08/13 08:10:30;;;;;;;5.07;2.17;;;;;;;24.93;36.41;101609.03;5037384;28;20026;-75
2022/08/13 08:13:00;;;;;;;3.92;2.10;;;;;;;24.95;37.01;101609.72;5035438;28;20021;-70
2022/08/13 08:15:27;;;;;;;3.67;2.17;;;;;;;25.00;36.61;101607.44;5034609;28;20029;-75
2022/08/13 08:17:54;;;;;;;4.72;2.50;;;;;;;25.05;36.72;101609.66;5035621;28;20029;-71
2022/08/13 08:20:22;;;;;;;4.93;2.20;;;;;;;25.10;37.15;101615.34;5034531;28;20080;-71
2022/08/13 08:22:54;;;;;;;4.07;2.30;;;;;;;25.15;36.87;101613.06;5035363;28;20022;-70
2022/08/13 08:25:21;;;;;;;4.03;2.00;;;;;;;25.20;37.10;101615.28;5034877;28;20026;-71
2022/08/13 08:27:50;;;;;;;5.53;2.38;;;;;;;25.21;36.72;101609.78;5034035;28;20041;-74
2022/08/13 08:30:17;;;;;;;4.55;2.10;;;;;;;25.22;37.03;101610.66;5034908;28;20029;-74
2022/08/13 08:32:52;;;;;;;4.63;2.00;;;;;;;25.22;37.36;101613.31;5035208;28;20056;-69
2022/08/13 08:35:19;;;;;;;5.60;2.28;;;;;;;25.23;37.27;101613.16;5034120;28;20577;-72
2022/08/13 08:43:34;;;;;;;4.95;1.95;;;;;;;25.32;37.55;101619.41;5034306;28;20045;-69
2022/08/13 08:46:03;;;;;;;4.45;2.08;;;;;;;25.33;37.10;101615.78;5035691;28;20087;-74
2022/08/13 08:48:30;;;;;;;3.85;1.95;;;;;;;25.32;37.60;101617.56;5033700;28;20032;-75
2022/08/13 08:50:56;;;;;;;6.13;2.35;;;;;;;25.32;37.68;101620.25;5035196;28;20025;-68
2022/08/13 08:53:23;;;;;;;4.45;1.90;;;;;;;25.32;37.24;101614.91;5034680;28;20131;-69
2022/08/13 08:55:51;;;;;;;3.85;2.08;;;;;;;25.32;37.49;101617.56;5034038;28;20148;-75
2022/08/13 08:58:20;;;;;;;3.05;1.98;;;;;;;25.35;37.82;101613.78;5034348;28;20029;-70
2022/08/13 09:00:47;;;;;;;5.15;2.05;;;;;;;25.40;37.71;101613.31;5034545;28;20048;-70
2022/08/13 09:03:17;;;;;;;4.25;1.67;;;;;;;25.46;37.65;101618.03;5033675;28;20025;-70
2022/08/13 09:05:45;;;;;;;5.25;2.20;;;;;;;25.46;37.92;101618.03;5034674;28;20034;-72
2022/08/13 09:08:10;;;;;;;3.47;1.70;;;;;;;25.46;37.35;101613.53;5034277;28;20060;-72
2022/08/13 09:10:36;;;;;;;3.70;1.88;;;;;;;25.47;37.63;101615.22;5033845;28;20478;-73
2022/08/13 09:13:03;;;;;;;5.07;1.85;;;;;;;25.48;37.26;101608.88;5034148;28;20095;-70
2022/08/13 09:15:34;;;;;;;5.43;1.95;;;;;;;25.51;37.65;101603.22;5034192;28;20354;-68
2022/08/13 09:18:01;;;;;;;5.68;2.20;;;;;;;25.53;38.13;101601.25;5033172;28;20368;-70
2022/08/13 09:20:28;;;;;;;5.18;2.20;;;;;;;25.55;37.95;101601.09;5034342;28;20099;-73
2022/08/13 09:23:07;;;;;;;4.68;2.08;;;;;;;25.57;37.91;101588.44;5035795;28;20029;-75
2022/08/13 09:25:34;;;;;;;4.03;1.88;;;;;;;25.61;38.11;101602.28;5033889;28;20108;-71
2022/08/13 09:27:59;;;;;;;4.28;2.00;;;;;;;25.65;38.08;101598.31;5033649;28;20026;-72
2022/08/13 09:30:25;;;;;;;4.85;2.28;;;;;;;25.69;37.82;101600.53;5034128;28;20373;-72
2022/08/13 09:32:53;;;;;;;3.63;1.65;;;;;;;25.74;37.90;101597.38;5033213;28;20071;-73
2022/08/13 09:35:18;;;;;;;4.05;1.95;;;;;;;25.77;38.11;101598.88;5033683;28;20038;-71
2022/08/13 09:37:44;;;;;;;3.92;2.03;;;;;;;25.79;37.87;101599.59;5033190;28;20029;-71
2022/08/13 09:40:20;;;;;;;4.25;2.13;;;;;;;25.79;37.88;101596.91;5033913;28;20052;-70
2022/08/13 09:42:57;;;;;;;4.75;1.85;;;;;;;25.77;38.04;101597.09;5034184;28;20568;-70
2022/08/13 09:45:30;;;;;;;4.57;1.80;;;;;;;25.79;38.29;101591.59;5032977;28;20116;-70
2022/08/13 09:47:59;;;;;;;4.15;1.95;;;;;;;25.80;37.80;101595.91;5033864;28;20037;-73
2022/08/13 09:50:27;;;;;;;4.43;1.90;;;;;;;25.79;37.92;101587.06;5034674;28;20504;-77
2022/08/13 09:52:53;;;;;;;3.85;1.90;;;;;;;25.80;38.06;101593.25;5036650;28;20083;-77
2022/08/13 09:55:19;;;;;;;3.53;1.85;;;;;;;25.81;38.31;101589.59;5034011;28;20631;-79
2022/08/13 09:57:59;;;;;;;3.20;1.60;;;;;;;25.82;38.15;101584.09;5034001;28;20032;-72
2022/08/13 10:00:27;;;;;;;3.50;1.88;;;;;;;25.82;37.93;101578.75;5032007;28;20029;-74
2022/08/13 10:02:56;;;;;;;6.55;2.30;;;;;;;25.84;37.83;101581.25;5033635;28;20021;-72
2022/08/13 10:05:23;;;;;;;3.40;1.80;;;;;;;25.84;37.83;101579.41;5033610;28;20377;-73
2022/08/13 10:07:48;;;;;;;2.67;1.58;;;;;;;25.83;38.40;101575.06;5032534;28;20033;-73
2022/08/13 10:10:15;;;;;;;3.47;1.63;;;;;;;25.86;38.00;101571.25;5033305;28;20030;-71
2022/08/13 10:12:41;;;;;;;3.60;1.88;;;;;;;25.87;37.90;101565.75;5033409;28;20052;-72
2022/08/13 10:15:12;;;;;;;3.38;1.80;;;;;;;25.89;38.16;101560.25;5032321;28;20030;-70
2022/08/13 10:17:51;;;;;;;3.25;1.73;;;;;;;25.91;37.98;101557.44;5033224;28;20120;-69
2022/08/13 10:20:24;;;;;;;4.90;2.10;;;;;;;25.93;38.22;101564.28;5032209;28;20484;-69
2022/08/13 10:22:50;;;;;;;3.50;1.80;;;;;;;25.97;37.94;101559.50;5033615;28;20370;-74
2022/08/13 10:25:17;;;;;;;3.35;1.83;;;;;;;25.97;37.82;101552.31;5033296;28;20036;-73
2022/08/13 10:27:46;;;;;;;4.57;1.70;;;;;;;26.02;38.08;101559.84;5032326;28;20517;-69
2022/08/13 10:30:11;;;;;;;4.75;2.08;;;;;;;26.04;37.88;101548.03;5032668;28;20052;-71
2022/08/13 10:32:37;;;;;;;4.78;1.70;;;;;;;26.08;37.87;101555.72;5032853;28;20029;-69
2022/08/13 10:35:03;;;;;;;3.33;1.75;;;;;;;26.10;37.72;101556.38;5032144;28;20025;-70
2022/08/13 10:37:28;;;;;;;3.30;1.90;;;;;;;26.13;37.97;101553.38;5033023;28;20426;-70
2022/08/13 10:39:55;;;;;;;3.78;1.70;;;;;;;26.11;37.72;101550.88;5033179;28;20021;-70
2022/08/13 10:42:21;;;;;;;3.72;1.60;;;;;;;26.12;38.22;101551.69;5031932;28;20400;-70
2022/08/13 10:44:48;;;;;;;5.40;1.90;;;;;;;26.12;37.57;101552.56;5033008;28;20108;-69
2022/08/13 10:47:14;;;;;;;3.20;1.60;;;;;;;26.13;38.23;101553.38;5032617;28;20057;-67
2022/08/13 10:49:39;;;;;;;3.63;1.50;;;;;;;26.12;37.86;101547.22;5032019;28;20057;-68
2022/08/13 10:52:10;;;;;;;3.87;1.70;;;;;;;26.11;38.04;101547.38;5032595;28;20030;-67
2022/08/13 10:54:35;;;;;;;2.92;1.50;;;;;;;26.09;38.23;101541.34;5032916;28;20630;-71
2022/08/13 10:57:01;;;;;;;2.97;1.50;;;;;;;26.08;38.06;101545.03;5031799;28;20494;-71
2022/08/13 10:59:26;;;;;;;4.20;1.90;;;;;;;26.06;38.04;101542.53;5032573;28;20332;-67
2022/08/13 11:01:51;;;;;;;5.53;1.73;;;;;;;26.06;38.32;101550.53;5032565;28;20283;-68
2022/08/13 11:04:17;;;;;;;4.38;1.60;;;;;;;26.05;37.78;101549.66;5031874;28;20352;-69
2022/08/13 11:06:45;;;;;;;2.97;1.65;;;;;;;26.04;38.44;101542.69;5032738;28;20496;-72
2022/08/13 11:09:11;;;;;;;4.10;1.67;;;;;;;26.04;38.54;101544.50;5031630;28;20029;-72
2022/08/13 11:11:36;;;;;;;4.20;1.55;;;;;;;26.04;37.82;101541.81;5034588;28;20037;-76
2022/08/13 11:14:02;;;;;;;3.17;1.42;;;;;;;25.95;37.97;101535.59;5038076;28;20025;-78
2022/08/13 11:19:05;;;;;;;4.00;1.30;;;;;;;25.88;37.88;101531.88;5038556;28;20044;-81
2022/08/13 11:21:30;;;;;;;6.03;1.80;;;;;;;25.87;38.32;101533.72;5037599;28;20032;-80
2022/08/13 11:23:56;;;;;;;4.63;1.93;;;;;;;25.87;37.86;101532.88;5037587;28;20104;-77
2022/08/13 11:26:21;;;;;;;4.15;1.40;;;;;;;25.88;37.75;101523.84;5036898;28;20262;-78
2022/08/13 11:28:46;;;;;;;4.38;1.50;;;;;;;25.88;38.40;101513.19;5037083;28;20033;-69
2022/08/13 11:31:12;;;;;;;2.90;1.42;;;;;;;25.89;38.31;101521.03;5035344;28;20025;-69
2022/08/13 11:33:37;;;;;;;3.95;1.70;;;;;;;25.94;38.31;101523.22;5036467;28;20021;-76
2022/08/13 11:36:03;;;;;;;4.13;1.30;;;;;;;25.94;37.87;101525.91;5036599;28;20025;-76
2022/08/13 11:38:28;;;;;;;4.32;1.48;;;;;;;25.95;37.92;101521.41;5035583;28;20030;-77
2022/08/13 11:40:56;;;;;;;5.57;1.40;;;;;;;25.95;38.10;101508.88;5036017;28;20101;-72
2022/08/13 11:43:23;;;;;;;2.78;1.40;;;;;;;25.96;38.11;101520.41;5036230;28;20026;-73
2022/08/13 11:45:49;;;;;;;2.95;1.60;;;;;;;25.98;37.72;101518.44;5035941;28;20033;-74